createdAt,value
2023-03-14T00:00:41.408Z,36.68
2023-03-14T00:03:10.912Z,36.65
2023-03-14T00:05:39.139Z,36.60
2023-03-14T00:08:07.639Z,36.67
2023-03-14T00:10:37.933Z,36.62
2023-03-14T00:13:06.791Z,36.62
2023-03-14T00:15:35.794Z,36.59
2023-03-14T00:18:04.287Z,36.63
2023-03-14T00:20:33.768Z,36.63
2023-03-14T00:23:01.869Z,36.73
2023-03-14T00:25:30.054Z,36.65
2023-03-14T00:27:58.132Z,36.73
2023-03-14T00:30:26.968Z,36.70
2023-03-14T00:32:55.133Z,36.60
2023-03-14T00:35:23.682Z,36.81
2023-03-14T00:37:53.223Z,36.58
2023-03-14T00:40:21.338Z,36.54
2023-03-14T00:42:49.436Z,36.62
2023-03-14T00:45:17.784Z,36.63
2023-03-14T00:47:46.736Z,36.70
2023-03-14T00:50:14.956Z,36.67
2023-03-14T00:52:43.212Z,36.70
2023-03-14T00:55:12.848Z,36.52
2023-03-14T00:57:40.916Z,36.67
2023-03-14T01:00:12.843Z,36.64
2023-03-14T01:02:40.961Z,36.68
2023-03-14T01:05:14.321Z,36.69
2023-03-14T01:07:42.556Z,36.73
2023-03-14T01:10:13.409Z,36.67
2023-03-14T01:12:41.580Z,36.63
2023-03-14T01:15:10.236Z,36.84
2023-03-14T01:17:39.115Z,36.74
2023-03-14T01:20:10.206Z,36.77
2023-03-14T01:22:39.706Z,36.74
2023-03-14T01:25:10.276Z,36.69
2023-03-14T01:27:39.937Z,36.68
2023-03-14T01:30:10.281Z,36.63
2023-03-14T01:32:38.635Z,37.02
2023-03-14T01:35:07.537Z,36.75
2023-03-14T01:37:36.121Z,36.75
2023-03-14T01:40:06.886Z,36.82
2023-03-14T01:42:35.365Z,36.75
2023-03-14T01:45:05.410Z,36.69
2023-03-14T01:47:33.506Z,36.89
2023-03-14T01:50:06.147Z,36.71
2023-03-14T01:52:38.642Z,36.75
2023-03-14T01:55:09.381Z,36.60
2023-03-14T01:57:41.947Z,36.81
2023-03-14T02:00:16.026Z,36.81
2023-03-14T02:02:48.724Z,36.73
2023-03-14T02:05:20.465Z,36.77
2023-03-14T02:07:52.039Z,36.79
2023-03-14T02:10:23.043Z,36.68
2023-03-14T02:12:52.918Z,36.84
2023-03-14T02:15:22.690Z,36.75
2023-03-14T02:17:51.170Z,36.82
2023-03-14T02:20:30.560Z,36.91
2023-03-14T02:22:59.068Z,36.75
2023-03-14T02:25:33.547Z,36.73
2023-03-14T02:28:03.558Z,36.71
2023-03-14T02:30:33.661Z,36.81
2023-03-14T02:33:05.146Z,36.88
2023-03-14T02:35:40.166Z,36.81
2023-03-14T02:38:17.211Z,36.89
2023-03-14T02:40:45.834Z,36.88
2023-03-14T02:43:15.606Z,36.75
2023-03-14T02:45:45.680Z,36.91
2023-03-14T02:48:18.917Z,36.85
2023-03-14T02:50:49.100Z,36.75
2023-03-14T02:53:20.848Z,36.74
2023-03-14T02:55:49.649Z,36.79
2023-03-14T02:58:19.443Z,36.73
2023-03-14T03:00:47.547Z,36.79
2023-03-14T03:03:16.041Z,36.77
2023-03-14T03:05:44.929Z,36.85
2023-03-14T03:08:13.221Z,36.88
2023-03-14T03:10:41.349Z,36.78
2023-03-14T03:13:09.575Z,36.80
2023-03-14T03:15:39.268Z,36.87
2023-03-14T03:18:07.419Z,36.86
2023-03-14T03:20:35.527Z,36.75
2023-03-14T03:23:04.185Z,36.84
2023-03-14T03:25:32.613Z,36.75
2023-03-14T03:28:01.167Z,36.84
2023-03-14T03:30:29.327Z,36.81
2023-03-14T03:32:58.897Z,36.84
2023-03-14T03:35:27.073Z,36.77
2023-03-14T03:37:55.140Z,36.70
2023-03-14T03:40:23.210Z,36.96
2023-03-14T03:42:51.258Z,36.78
2023-03-14T03:45:19.467Z,36.70
2023-03-14T03:47:47.558Z,36.78
2023-03-14T03:50:17.204Z,36.85
2023-03-14T03:52:45.276Z,36.75
2023-03-14T03:55:13.433Z,37.00
2023-03-14T03:57:41.959Z,36.79
2023-03-14T04:00:13.807Z,36.90
2023-03-14T04:02:41.980Z,36.83
2023-03-14T04:05:10.794Z,36.84
2023-03-14T04:07:40.332Z,36.75
2023-03-14T04:10:08.858Z,36.82
2023-03-14T04:12:37.026Z,36.81
2023-03-14T04:15:05.591Z,36.79
2023-03-14T04:17:33.698Z,36.79
2023-03-14T04:20:01.849Z,36.80
2023-03-14T04:22:29.927Z,36.94
2023-03-14T04:24:59.530Z,36.92
2023-03-14T04:27:28.073Z,36.90
2023-03-14T04:29:56.266Z,36.87
2023-03-14T04:32:24.707Z,36.77
2023-03-14T04:34:52.886Z,36.91
2023-03-14T04:37:20.949Z,36.85
2023-03-14T04:39:49.058Z,36.91
2023-03-14T04:42:18.579Z,36.88
2023-03-14T04:44:48.007Z,36.79
2023-03-14T04:47:16.118Z,36.91
2023-03-14T04:49:44.434Z,36.83
2023-03-14T04:52:12.563Z,36.75
2023-03-14T04:54:40.656Z,36.83
2023-03-14T04:57:08.732Z,36.78
2023-03-14T04:59:38.327Z,36.78
2023-03-14T05:02:06.504Z,36.90
2023-03-14T05:04:34.896Z,36.90
2023-03-14T05:07:03.000Z,36.88
2023-03-14T05:09:31.157Z,36.91
2023-03-14T05:11:59.357Z,36.77
2023-03-14T05:14:27.588Z,36.86
2023-03-14T05:16:57.106Z,36.92
2023-03-14T05:19:25.260Z,36.81
2023-03-14T05:21:53.496Z,36.66
2023-03-14T05:24:21.674Z,36.95
2023-03-14T05:26:49.849Z,36.98
2023-03-14T05:29:17.985Z,36.92
2023-03-14T05:31:46.125Z,36.86
2023-03-14T05:34:15.670Z,36.89
2023-03-14T05:36:43.776Z,36.89
2023-03-14T05:39:12.083Z,36.91
2023-03-14T05:41:40.293Z,36.97
2023-03-14T05:44:08.421Z,36.90
2023-03-14T05:46:36.532Z,36.78
2023-03-14T05:49:04.780Z,36.94
2023-03-14T05:51:34.481Z,36.88
2023-03-14T05:54:02.691Z,36.92
2023-03-14T05:56:30.826Z,36.94
2023-03-14T05:58:59.053Z,36.82
2023-03-14T06:01:27.195Z,36.89
2023-03-14T06:03:55.369Z,36.92
2023-03-14T06:06:23.526Z,37.04
2023-03-14T06:08:53.213Z,36.95
2023-03-14T06:11:21.419Z,36.92
2023-03-14T06:13:49.624Z,36.96
2023-03-14T06:16:17.836Z,37.26
2023-03-14T06:18:47.561Z,37.15
2023-03-14T06:21:17.355Z,37.33
2023-03-14T06:23:46.523Z,37.21
2023-03-14T06:26:16.183Z,37.15
2023-03-14T06:28:44.390Z,37.22
2023-03-14T06:31:12.593Z,37.24
2023-03-14T06:33:40.762Z,37.42
2023-03-14T06:36:10.030Z,37.39
2023-03-14T06:38:38.413Z,37.57
2023-03-14T06:41:07.094Z,37.44
2023-03-14T06:43:36.873Z,37.60
2023-03-14T06:46:05.187Z,37.60
2023-03-14T06:48:33.875Z,37.69
2023-03-14T06:51:02.027Z,37.69
2023-03-14T06:53:30.219Z,37.65
2023-03-14T06:55:58.293Z,37.85
2023-03-14T06:58:26.965Z,37.66
2023-03-14T07:00:57.814Z,37.80
2023-03-14T07:03:25.966Z,37.90
2023-03-14T07:05:54.743Z,37.96
2023-03-14T07:08:23.063Z,37.98
2023-03-14T07:10:51.138Z,38.09
2023-03-14T07:13:19.231Z,38.20
2023-03-14T07:15:47.629Z,37.97
2023-03-14T07:18:17.152Z,38.01
2023-03-14T07:20:48.899Z,38.12
2023-03-14T07:23:17.913Z,38.16
2023-03-14T07:25:45.996Z,38.13
2023-03-14T07:28:14.101Z,37.95
2023-03-14T07:30:42.296Z,37.75
2023-03-14T07:33:11.546Z,37.70
2023-03-14T07:35:41.364Z,37.63
2023-03-14T07:38:09.445Z,37.34
2023-03-14T07:40:37.600Z,37.60
2023-03-14T07:43:05.724Z,37.63
2023-03-14T07:45:39.626Z,37.68
2023-03-14T07:48:11.115Z,37.97
2023-03-14T07:50:40.655Z,37.99
2023-03-14T07:53:08.806Z,38.01
2023-03-14T07:55:36.985Z,38.25
2023-03-14T07:58:05.073Z,38.28
2023-03-14T08:00:33.244Z,38.33
2023-03-14T08:03:06.096Z,38.45
2023-03-14T08:05:37.048Z,38.31
2023-03-14T08:08:07.237Z,38.49
2023-03-14T08:10:35.531Z,38.55
2023-03-14T08:13:03.902Z,38.44
2023-03-14T08:15:33.051Z,38.44
2023-03-14T08:18:03.405Z,38.63
2023-03-14T08:20:32.191Z,38.46
2023-03-14T08:23:00.896Z,38.65
2023-03-14T08:25:30.772Z,38.59
2023-03-14T08:27:59.231Z,38.74
2023-03-14T08:30:27.610Z,38.57
2023-03-14T08:32:56.503Z,38.64
2023-03-14T08:35:24.974Z,38.66
2023-03-14T08:37:53.245Z,38.58
2023-03-14T08:40:21.969Z,38.61
2023-03-14T08:42:51.667Z,38.71
2023-03-14T08:45:20.013Z,38.59
2023-03-14T08:47:48.665Z,38.63
2023-03-14T08:50:16.983Z,38.51
2023-03-14T08:52:45.281Z,38.50
2023-03-14T08:55:13.483Z,38.71
2023-03-14T08:57:41.590Z,38.69
2023-03-14T09:00:13.618Z,38.68
2023-03-14T09:02:42.052Z,38.61
2023-03-14T09:05:11.334Z,38.62
2023-03-14T09:07:40.423Z,38.62
2023-03-14T09:10:11.013Z,38.59
2023-03-14T09:12:39.134Z,38.74
2023-03-14T09:15:09.659Z,38.73
2023-03-14T09:17:39.273Z,38.53
2023-03-14T09:20:10.083Z,38.73
2023-03-14T09:22:38.492Z,38.73
2023-03-14T09:25:07.231Z,38.61
2023-03-14T09:27:35.819Z,38.63
2023-03-14T09:30:05.608Z,38.79
2023-03-14T09:32:34.770Z,38.75
2023-03-14T09:35:04.837Z,38.67
2023-03-14T09:37:32.938Z,38.77
2023-03-14T09:40:01.069Z,38.78
2023-03-14T09:42:30.191Z,38.74
2023-03-14T09:45:01.535Z,38.86
2023-03-14T09:47:31.181Z,38.87
2023-03-14T09:50:00.929Z,38.85
2023-03-14T09:52:34.363Z,38.88
2023-03-14T09:55:05.281Z,38.92
2023-03-14T09:57:36.157Z,38.95
2023-03-14T10:00:14.118Z,38.80
2023-03-14T10:02:47.100Z,38.91
2023-03-14T10:05:20.252Z,38.93
2023-03-14T10:07:50.060Z,38.86
2023-03-14T10:10:21.388Z,38.85
2023-03-14T10:12:57.046Z,38.87
2023-03-14T10:15:28.093Z,38.64
2023-03-14T10:17:56.246Z,38.61
2023-03-14T10:20:37.059Z,38.92
2023-03-14T10:23:09.417Z,38.64
2023-03-14T10:25:40.045Z,38.64
2023-03-14T10:28:13.884Z,38.55
2023-03-14T10:30:46.266Z,38.46
2023-03-14T10:33:22.925Z,38.71
2023-03-14T10:35:56.821Z,38.57
2023-03-14T10:38:29.620Z,38.47
2023-03-14T10:40:59.703Z,38.49
2023-03-14T10:43:30.009Z,38.66
2023-03-14T10:46:01.224Z,38.58
2023-03-14T10:48:34.890Z,38.52
2023-03-14T10:51:08.918Z,38.76
2023-03-14T10:53:44.162Z,38.66
2023-03-14T10:56:15.698Z,38.44
2023-03-14T10:58:45.586Z,38.43
2023-03-14T11:01:41.417Z,38.75
2023-03-14T11:04:20.752Z,38.42
2023-03-14T11:06:57.385Z,38.49
2023-03-14T11:09:35.180Z,38.45
2023-03-14T11:12:16.017Z,38.44
2023-03-14T11:14:52.392Z,38.61
2023-03-14T11:17:29.242Z,38.43
2023-03-14T11:20:14.734Z,38.61
2023-03-14T11:22:49.427Z,38.36
2023-03-14T11:25:29.382Z,38.74
2023-03-14T11:28:09.307Z,38.42
2023-03-14T11:30:42.896Z,38.49
2023-03-14T11:33:16.575Z,38.62
2023-03-14T11:35:51.625Z,38.63
2023-03-14T11:38:31.787Z,38.76
2023-03-14T11:41:02.342Z,38.38
2023-03-14T11:43:33.181Z,38.58
2023-03-14T11:46:07.969Z,38.72
2023-03-14T11:48:42.061Z,38.59
2023-03-14T11:51:19.445Z,38.75
2023-03-14T11:54:02.334Z,39.14
2023-03-14T11:56:40.909Z,38.96
2023-03-14T11:59:19.326Z,38.99
2023-03-14T12:01:59.395Z,38.96
2023-03-14T12:04:45.799Z,39.10
2023-03-14T12:07:21.871Z,39.03
2023-03-14T12:09:54.186Z,38.86
2023-03-14T12:12:38.276Z,39.60
2023-03-14T12:15:08.111Z,38.69
2023-03-14T12:17:38.634Z,38.86
2023-03-14T12:20:17.370Z,38.79
2023-03-14T12:22:47.005Z,38.81
2023-03-14T12:25:21.902Z,39.00
2023-03-14T12:28:19.322Z,39.62
2023-03-14T12:30:47.663Z,38.76
2023-03-14T12:33:34.339Z,39.64
2023-03-14T12:36:41.539Z,39.54
2023-03-14T12:39:27.854Z,39.42
2023-03-14T12:42:05.379Z,39.37
2023-03-14T12:44:47.180Z,39.61
2023-03-14T12:47:47.792Z,39.80
2023-03-14T12:50:21.646Z,39.10
2023-03-14T12:53:19.613Z,39.44
2023-03-14T12:55:53.625Z,38.94
2023-03-14T12:58:31.799Z,39.17
2023-03-14T13:01:03.538Z,39.06
2023-03-14T13:03:41.972Z,39.34
2023-03-14T13:06:13.846Z,39.00
2023-03-14T13:08:44.246Z,38.92
2023-03-14T13:11:19.000Z,39.07
2023-03-14T13:13:49.882Z,38.87
2023-03-14T13:16:22.278Z,38.95
2023-03-14T13:18:53.118Z,39.02
2023-03-14T13:21:24.114Z,39.06
2023-03-14T13:24:00.759Z,39.35
2023-03-14T13:26:36.306Z,39.25
2023-03-14T13:29:11.688Z,39.34
2023-03-14T13:31:46.400Z,39.35
2023-03-14T13:34:14.951Z,39.15
2023-03-14T13:36:55.447Z,39.44
2023-03-14T13:39:26.626Z,39.05
2023-03-14T13:41:55.582Z,39.00
2023-03-14T13:44:27.729Z,39.13
2023-03-14T13:47:00.996Z,39.03
2023-03-14T13:49:32.434Z,38.95
2023-03-14T13:52:00.691Z,38.88
2023-03-14T13:54:30.216Z,38.87
2023-03-14T13:57:02.426Z,38.88
2023-03-14T13:59:32.851Z,38.76
2023-03-14T14:02:07.041Z,38.70
2023-03-14T14:04:38.429Z,38.73
2023-03-14T14:07:12.809Z,38.60
2023-03-14T14:09:44.226Z,38.70
2023-03-14T14:12:17.933Z,38.68
2023-03-14T14:14:49.704Z,38.49
2023-03-14T14:17:22.704Z,38.60
2023-03-14T14:19:51.414Z,38.46
2023-03-14T14:22:20.406Z,38.54
2023-03-14T14:24:48.878Z,38.46
2023-03-14T14:27:19.500Z,38.55
2023-03-14T14:29:59.741Z,38.53
2023-03-14T14:32:29.362Z,38.47
2023-03-14T14:35:01.692Z,38.50
2023-03-14T14:37:32.882Z,38.47
2023-03-14T14:40:04.137Z,38.50
2023-03-14T14:42:34.194Z,38.44
2023-03-14T14:45:04.611Z,38.47
2023-03-14T14:47:34.336Z,38.36
2023-03-14T14:50:06.929Z,38.28
2023-03-14T14:52:43.413Z,38.27
2023-03-14T14:55:18.592Z,38.17
2023-03-14T14:57:52.071Z,38.65
2023-03-14T15:00:23.050Z,38.36
2023-03-14T15:02:56.261Z,38.45
2023-03-14T15:05:27.033Z,38.28
2023-03-14T15:07:55.700Z,38.26
2023-03-14T15:10:26.246Z,38.26
2023-03-14T15:12:54.779Z,38.24
2023-03-14T15:15:23.047Z,38.28
2023-03-14T15:17:52.600Z,38.31
2023-03-14T15:20:24.526Z,38.20
2023-03-14T15:22:52.843Z,38.22
2023-03-14T15:25:43.382Z,38.22
2023-03-14T15:28:23.169Z,38.24
2023-03-14T15:30:52.237Z,38.22
2023-03-14T15:33:23.131Z,38.21
2023-03-14T15:35:51.946Z,38.31
2023-03-14T15:38:24.072Z,38.27
2023-03-14T15:40:53.318Z,38.22
2023-03-14T15:43:21.922Z,38.18
2023-03-14T15:45:51.632Z,38.16
2023-03-14T15:48:23.285Z,38.18
2023-03-14T15:50:51.398Z,38.22
2023-03-14T15:53:19.864Z,38.19
2023-03-14T15:55:48.007Z,38.15
2023-03-14T15:58:21.449Z,38.13
2023-03-14T16:00:50.498Z,38.06
2023-03-14T16:03:19.268Z,38.11
2023-03-14T16:05:49.183Z,38.07
2023-03-14T16:08:17.555Z,38.12
2023-03-14T16:10:46.817Z,37.95
2023-03-14T16:13:15.079Z,38.10
2023-03-14T16:15:43.192Z,37.95
2023-03-14T16:18:21.295Z,37.93
2023-03-14T16:21:02.013Z,37.81
2023-03-14T16:23:30.992Z,37.92
2023-03-14T16:25:59.493Z,37.98
2023-03-14T16:28:28.185Z,37.98
2023-03-14T16:31:02.085Z,37.99
2023-03-14T16:33:30.270Z,37.93
2023-03-14T16:36:02.116Z,37.85
2023-03-14T16:38:33.737Z,37.94
2023-03-14T16:41:03.607Z,37.84
2023-03-14T16:43:33.979Z,37.86
2023-03-14T16:46:02.689Z,37.87
2023-03-14T16:48:31.178Z,37.77
2023-03-14T16:51:00.856Z,37.81
2023-03-14T16:53:30.166Z,37.67
2023-03-14T16:56:00.093Z,37.91
2023-03-14T16:58:30.357Z,37.90
2023-03-14T17:00:58.885Z,37.67
2023-03-14T17:03:28.001Z,37.73
2023-03-14T17:05:56.204Z,37.92
2023-03-14T17:08:25.600Z,37.73
2023-03-14T17:10:53.726Z,37.83
2023-03-14T17:13:25.749Z,37.83
2023-03-14T17:15:55.861Z,37.87
2023-03-14T17:18:24.284Z,37.85
2023-03-14T17:20:52.797Z,37.73
2023-03-14T17:23:21.303Z,37.71
2023-03-14T17:25:52.107Z,37.74
2023-03-14T17:28:22.199Z,37.81
2023-03-14T17:30:50.656Z,37.65
2023-03-14T17:33:19.127Z,37.77
2023-03-14T17:35:47.212Z,37.68
2023-03-14T17:38:15.263Z,37.62
2023-03-14T17:40:47.866Z,37.74
2023-03-14T17:43:19.179Z,37.63
2023-03-14T17:45:47.378Z,37.63
2023-03-14T17:48:15.423Z,37.77
2023-03-14T17:50:43.528Z,37.64
2023-03-14T17:53:11.534Z,37.61
2023-03-14T17:55:39.554Z,37.51
2023-03-14T17:58:07.565Z,37.66
2023-03-14T18:00:37.079Z,37.42
2023-03-14T18:03:05.870Z,37.55
2023-03-14T18:05:33.958Z,37.56
2023-03-14T18:08:01.961Z,37.44
2023-03-14T18:10:30.330Z,37.60
2023-03-14T18:12:58.340Z,37.36
2023-03-14T18:15:26.416Z,37.46
2023-03-14T18:17:55.835Z,37.43
2023-03-14T18:20:23.864Z,37.46
2023-03-14T18:22:51.908Z,37.50
2023-03-14T18:25:20.132Z,37.42
2023-03-14T18:27:48.272Z,37.37
2023-03-14T18:30:17.172Z,37.42
2023-03-14T18:32:45.298Z,37.46
2023-03-14T18:35:14.822Z,37.47
2023-03-14T18:37:44.589Z,37.54
2023-03-14T18:40:17.049Z,37.45
2023-03-14T18:42:45.940Z,37.52
2023-03-14T18:45:14.135Z,37.46
2023-03-14T18:47:42.296Z,37.52
2023-03-14T18:50:11.920Z,37.51
2023-03-14T18:52:41.411Z,37.38
2023-03-14T18:55:11.222Z,37.47
2023-03-14T18:57:39.385Z,37.35
2023-03-14T19:00:11.052Z,37.47
2023-03-14T19:02:39.188Z,37.47
2023-03-14T19:05:09.253Z,37.49
2023-03-14T19:07:37.489Z,37.27
2023-03-14T19:10:07.992Z,37.55
2023-03-14T19:12:36.112Z,37.40
2023-03-14T19:15:04.835Z,37.54
2023-03-14T19:17:33.617Z,37.32
2023-03-14T19:20:02.053Z,37.22
2023-03-14T19:22:30.132Z,37.35
2023-03-14T19:24:58.238Z,37.30
2023-03-14T19:27:27.737Z,37.22
2023-03-14T19:29:55.843Z,37.35
2023-03-14T19:32:23.966Z,37.18
2023-03-14T19:34:52.086Z,37.22
2023-03-14T19:37:20.464Z,37.17
2023-03-14T19:39:48.785Z,37.16
2023-03-14T19:42:16.876Z,37.34
2023-03-14T19:44:46.444Z,37.32
2023-03-14T19:47:14.580Z,37.21
2023-03-14T19:49:42.759Z,37.22
2023-03-14T19:52:10.954Z,37.16
2023-03-14T19:54:39.164Z,37.22
2023-03-14T19:57:07.208Z,37.20
2023-03-14T19:59:35.413Z,37.19
2023-03-14T20:02:05.172Z,37.26
2023-03-14T20:04:33.829Z,36.99
2023-03-14T20:07:04.750Z,37.10
2023-03-14T20:09:33.057Z,37.15
2023-03-14T20:12:01.640Z,37.16
2023-03-14T20:14:29.760Z,37.11
2023-03-14T20:16:57.957Z,37.00
2023-03-14T20:19:28.284Z,37.05
2023-03-14T20:21:56.538Z,37.08
2023-03-14T20:24:24.883Z,37.00
2023-03-14T20:26:53.017Z,37.08
2023-03-14T20:29:21.176Z,36.95
2023-03-14T20:31:49.290Z,37.10
2023-03-14T20:34:17.392Z,37.01
2023-03-14T20:36:48.966Z,37.00
2023-03-14T20:39:17.100Z,37.11
2023-03-14T20:41:45.203Z,37.08
2023-03-14T20:44:13.617Z,36.98
2023-03-14T20:46:42.295Z,36.98
2023-03-14T20:49:10.632Z,37.06
2023-03-14T20:51:38.920Z,37.07
2023-03-14T20:54:10.067Z,36.85
2023-03-14T20:56:38.152Z,37.10
2023-03-14T20:59:06.275Z,36.90
2023-03-14T21:01:34.704Z,36.97
2023-03-14T21:04:02.985Z,36.93
2023-03-14T21:06:32.597Z,36.89
2023-03-14T21:09:05.476Z,36.86
2023-03-14T21:11:36.494Z,36.90
2023-03-14T21:14:04.885Z,36.87
2023-03-14T21:16:33.191Z,36.96
2023-03-14T21:19:01.376Z,37.05
2023-03-14T21:21:29.469Z,36.80
2023-03-14T21:23:57.778Z,36.79
2023-03-14T21:26:25.863Z,36.90
2023-03-14T21:28:55.600Z,36.94
2023-03-14T21:31:24.138Z,36.92
2023-03-14T21:33:52.791Z,36.92
2023-03-14T21:36:21.446Z,36.94
2023-03-14T21:38:49.708Z,36.84
2023-03-14T21:41:17.791Z,36.73
2023-03-14T21:43:45.980Z,36.82
2023-03-14T21:46:15.800Z,36.81
2023-03-14T21:48:44.162Z,36.78
2023-03-14T21:51:12.295Z,36.82
2023-03-14T21:53:40.947Z,36.84
2023-03-14T21:56:09.212Z,36.74
2023-03-14T21:58:37.299Z,36.84
2023-03-14T22:01:07.856Z,36.66
2023-03-14T22:03:37.420Z,36.65
2023-03-14T22:06:06.071Z,36.90
2023-03-14T22:08:34.149Z,36.60
2023-03-14T22:11:02.325Z,36.93
2023-03-14T22:13:30.511Z,36.79
2023-03-14T22:15:58.770Z,36.73
2023-03-14T22:18:26.909Z,36.73
2023-03-14T22:20:56.904Z,36.69
2023-03-14T22:23:25.154Z,36.82
2023-03-14T22:25:53.490Z,36.64
2023-03-14T22:28:21.715Z,36.64
2023-03-14T22:30:51.199Z,36.61
2023-03-14T22:33:20.485Z,36.76
2023-03-14T22:35:49.520Z,36.99
2023-03-14T22:38:19.228Z,36.66
2023-03-14T22:40:47.693Z,36.62
2023-03-14T22:43:15.987Z,36.63
2023-03-14T22:45:44.197Z,36.72
2023-03-14T22:48:12.469Z,36.74
2023-03-14T22:50:40.989Z,36.59
2023-03-14T22:53:09.292Z,36.51
2023-03-14T22:55:38.848Z,36.57
2023-03-14T22:58:07.357Z,36.60
2023-03-14T23:00:35.533Z,36.66
2023-03-14T23:03:04.047Z,36.63
2023-03-14T23:05:32.212Z,36.53
2023-03-14T23:08:00.347Z,36.62
2023-03-14T23:10:28.524Z,36.52
2023-03-14T23:12:58.124Z,36.59
2023-03-14T23:15:27.074Z,36.55
2023-03-14T23:17:55.325Z,36.58
2023-03-14T23:20:23.399Z,36.68
2023-03-14T23:22:52.179Z,36.53
2023-03-14T23:25:20.684Z,36.54
2023-03-14T23:27:48.724Z,36.43
2023-03-14T23:30:18.694Z,36.46
2023-03-14T23:32:46.791Z,36.55
2023-03-14T23:35:15.497Z,36.54
2023-03-14T23:37:43.583Z,36.57
2023-03-14T23:40:12.834Z,36.61
2023-03-14T23:42:41.034Z,36.49
2023-03-14T23:45:09.620Z,36.55
2023-03-14T23:47:39.040Z,36.46
2023-03-14T23:50:07.717Z,36.43
2023-03-14T23:52:35.872Z,36.53
2023-03-14T23:55:04.352Z,36.47
2023-03-14T23:57:32.426Z,36.43
